Time;durP1;ratioP1;P1;durP2;ratioP2;P2;SDS_P1;SDS_P2;PMS_P1;PMS_P2;Temp;Humidity;BMP_temperature;BMP_pressure;BME280_temperature;BME280_humidity;BME280_pressure;Samples;Min_cycle;Max_cycle;Signal;HPM_P1;HPM_P2
2024/02/10 00:02:17;;;;;;;6.13;5.53;;;;;;;9.89;100.00;153898.22;5039660;28;20469;-95
2024/02/10 00:04:47;;;;;;;8.47;6.80;;;;;;;9.87;100.00;153893.06;5039424;28;20537;-95
2024/02/10 00:07:15;;;;;;;8.60;6.23;;;;;;;9.85;100.00;153887.88;5039281;28;20438;-94
2024/02/10 00:09:46;;;;;;;8.50;6.20;;;;;;;9.80;100.00;153877.50;5041001;28;20458;-95
2024/02/10 00:12:13;;;;;;;10.33;8.10;;;;;;;9.80;100.00;153877.50;5040354;28;20482;-95
2024/02/10 00:14:41;;;;;;;10.87;7.33;;;;;;;9.78;100.00;153872.34;5040032;28;20445;-94
2024/02/10 00:17:09;;;;;;;8.93;7.87;;;;;;;9.79;100.00;153874.91;5040581;28;20450;-92
2024/02/10 00:19:36;;;;;;;11.50;7.97;;;;;;;9.80;100.00;153877.50;5038281;28;20496;-94
2024/02/10 00:22:08;;;;;;;10.97;6.97;;;;;;;9.78;100.00;153872.34;5037478;28;20446;-94
2024/02/10 00:24:34;;;;;;;9.93;7.87;;;;;;;9.82;100.00;153882.69;5037342;28;20469;-94
2024/02/10 00:27:02;;;;;;;9.70;7.30;;;;;;;9.78;100.00;153871.03;5037658;28;20458;-94
2024/02/10 00:29:33;;;;;;;10.53;7.40;;;;;;;9.78;100.00;153872.34;5037187;28;20442;-94
2024/02/10 00:32:00;;;;;;;10.30;8.30;;;;;;;9.78;100.00;153871.03;4998822;28;1097936;-94
2024/02/10 00:34:29;;;;;;;10.53;8.10;;;;;;;9.77;100.00;153869.75;5038309;28;20271;-94
2024/02/10 00:36:56;;;;;;;8.83;7.10;;;;;;;9.76;100.00;153867.19;5038193;28;20499;-94
2024/02/10 00:39:23;;;;;;;9.33;8.07;;;;;;;9.74;100.00;153861.97;5037938;28;20477;-95
2024/02/10 00:41:50;;;;;;;10.40;7.83;;;;;;;9.74;100.00;153860.72;5032847;28;20493;-94
2024/02/10 00:44:20;;;;;;;10.90;9.00;;;;;;;9.71;100.00;153854.25;5019953;28;20446;-94
2024/02/10 00:46:47;;;;;;;12.07;8.17;;;;;;;9.73;100.00;153859.41;5018699;28;20430;-94
2024/02/10 00:49:14;;;;;;;10.23;9.10;;;;;;;9.74;100.00;153860.72;5017650;28;20940;-94
2024/02/10 00:51:40;;;;;;;15.23;11.17;;;;;;;9.76;100.00;153867.19;5017377;28;20455;-94
2024/02/10 00:54:07;;;;;;;14.57;11.80;;;;;;;9.76;100.00;153867.19;5028774;28;20948;-94
2024/02/10 00:56:36;;;;;;;14.93;10.97;;;;;;;9.75;100.00;153863.28;5038041;28;20470;-94
2024/02/10 00:59:02;;;;;;;13.23;10.87;;;;;;;9.75;100.00;153864.56;5028071;28;20893;-95
2024/02/10 01:01:31;;;;;;;15.50;12.70;;;;;;;9.77;100.00;153868.44;5018528;28;20530;-94
2024/02/10 01:04:01;;;;;;;15.87;12.93;;;;;;;9.80;100.00;153876.22;5033309;28;20931;-94
2024/02/10 01:06:27;;;;;;;15.60;12.60;;;;;;;9.79;100.00;153874.91;5037855;28;20430;-95
2024/02/10 01:08:54;;;;;;;12.97;10.33;;;;;;;9.78;100.00;153871.03;5037656;28;20451;-94
2024/02/10 01:11:22;;;;;;;11.93;10.40;;;;;;;9.78;100.00;153872.34;5037423;28;20445;-94
2024/02/10 01:13:49;;;;;;;13.43;9.57;;;;;;;9.77;100.00;153869.75;5034474;28;20489;-94
2024/02/10 01:16:18;;;;;;;12.70;9.97;;;;;;;9.78;100.00;153872.34;5034130;28;20435;-94
2024/02/10 01:18:49;;;;;;;10.73;9.33;;;;;;;9.79;100.00;153874.91;5017291;28;20467;-94
2024/02/10 01:21:17;;;;;;;12.13;9.90;;;;;;;9.79;100.00;153874.91;5034200;28;20498;-95
2024/02/10 01:23:46;;;;;;;11.60;9.23;;;;;;;9.78;100.00;153872.34;5035888;28;20455;-94
2024/02/10 01:26:13;;;;;;;12.40;9.77;;;;;;;9.75;100.00;153864.56;5041380;28;20477;-94
2024/02/10 01:28:44;;;;;;;11.50;8.57;;;;;;;9.75;100.00;153863.28;5038018;28;20446;-94
2024/02/10 01:31:11;;;;;;;11.07;9.13;;;;;;;9.76;100.00;153867.19;5036637;28;20426;-94
2024/02/10 01:33:41;;;;;;;12.20;9.60;;;;;;;9.75;100.00;153864.56;5037051;28;20435;-95
2024/02/10 01:36:09;;;;;;;11.23;9.10;;;;;;;9.71;100.00;153854.25;5037066;28;20434;-94
2024/02/10 01:38:42;;;;;;;11.67;9.87;;;;;;;9.69;100.00;153847.72;5037123;28;20569;-95
2024/02/10 01:41:11;;;;;;;10.40;8.70;;;;;;;9.68;100.00;153846.47;5037122;28;20813;-94
2024/02/10 01:43:38;;;;;;;11.57;9.30;;;;;;;9.66;100.00;153840.00;5036942;28;20450;-93
2024/02/10 01:46:05;;;;;;;10.47;8.00;;;;;;;9.66;100.00;153841.25;5037054;28;20446;-94
2024/02/10 01:48:32;;;;;;;8.43;7.53;;;;;;;9.66;100.00;153841.25;5049484;28;20450;-94
2024/02/10 01:50:59;;;;;;;9.03;7.87;;;;;;;9.66;100.00;153840.00;5053269;28;20442;-94
2024/02/10 01:53:27;;;;;;;9.50;7.67;;;;;;;9.66;100.00;153841.25;5036927;28;20435;-93
2024/02/10 01:55:54;;;;;;;9.50;8.30;;;;;;;9.67;100.00;153842.56;5036995;28;20766;-94
2024/02/10 01:58:24;;;;;;;10.17;7.60;;;;;;;9.67;100.00;153843.88;5036768;28;20457;-94
2024/02/10 02:00:51;;;;;;;11.20;8.20;;;;;;;9.68;100.00;153845.16;5036144;28;20464;-94
2024/02/10 02:03:19;;;;;;;8.00;6.70;;;;;;;9.66;100.00;153841.25;5053199;28;20454;-94
2024/02/10 02:05:45;;;;;;;8.10;6.43;;;;;;;9.66;100.00;153841.25;5036388;28;20559;-94
2024/02/10 02:08:12;;;;;;;11.20;6.27;;;;;;;9.67;100.00;153842.56;5036171;28;20442;-94
2024/02/10 02:10:40;;;;;;;7.47;6.10;;;;;;;9.67;100.00;153843.88;5027932;28;20836;-95
2024/02/10 02:13:07;;;;;;;7.70;5.70;;;;;;;9.70;100.00;153850.34;5019443;28;20542;-94
2024/02/10 02:15:33;;;;;;;7.97;6.07;;;;;;;9.67;100.00;153843.88;5029542;28;20475;-94
2024/02/10 02:18:00;;;;;;;7.23;6.27;;;;;;;9.66;100.00;153841.25;5044588;28;20449;-94
2024/02/10 02:20:28;;;;;;;7.67;6.00;;;;;;;9.65;100.00;153838.72;5033502;28;20467;-94
2024/02/10 02:22:56;;;;;;;7.80;6.20;;;;;;;9.66;100.00;153841.25;5035961;28;20524;-94
2024/02/10 02:25:23;;;;;;;8.70;6.20;;;;;;;9.69;100.00;153849.03;5036039;28;20450;-94
2024/02/10 02:27:50;;;;;;;9.63;6.40;;;;;;;9.69;100.00;153847.72;5052087;28;20932;-94
2024/02/10 02:30:17;;;;;;;8.33;6.77;;;;;;;9.67;100.00;153843.88;5036206;28;20426;-94
2024/02/10 02:32:44;;;;;;;6.33;5.63;;;;;;;9.65;100.00;153837.41;5021374;28;20551;-94
2024/02/10 02:35:11;;;;;;;8.60;7.40;;;;;;;9.66;100.00;153841.25;5016378;28;20427;-94
2024/02/10 02:37:37;;;;;;;9.40;7.50;;;;;;;9.66;100.00;153841.25;5016374;28;20941;-94
2024/02/10 02:40:07;;;;;;;9.60;7.60;;;;;;;9.64;100.00;153834.81;5016243;28;20992;-94
2024/02/10 02:42:34;;;;;;;11.63;9.27;;;;;;;9.62;100.00;153830.94;5015909;28;20462;-94
2024/02/10 02:45:03;;;;;;;14.97;8.93;;;;;;;9.62;100.00;153830.94;5016349;28;20443;-94
2024/02/10 02:47:32;;;;;;;12.10;9.17;;;;;;;9.62;100.00;153830.94;5016331;28;20530;-94
2024/02/10 02:49:58;;;;;;;14.37;10.03;;;;;;;9.56;100.00;153815.41;5016549;28;20450;-94
2024/02/10 02:52:27;;;;;;;11.57;9.27;;;;;;;9.54;100.00;153810.25;5016186;28;20455;-94
2024/02/10 02:54:55;;;;;;;10.70;8.70;;;;;;;9.54;100.00;153810.25;5016829;28;20825;-94
2024/02/10 02:57:23;;;;;;;10.63;9.53;;;;;;;9.51;100.00;153802.47;5016525;28;20435;-94
2024/02/10 02:59:50;;;;;;;12.50;9.23;;;;;;;9.53;100.00;153807.63;5016605;28;20474;-94
2024/02/10 03:02:17;;;;;;;13.00;10.07;;;;;;;9.51;100.00;153802.47;5016125;28;20427;-94
2024/02/10 03:04:43;;;;;;;13.60;10.83;;;;;;;9.46;100.00;153788.22;5006561;28;20459;-95
2024/02/10 03:07:10;;;;;;;13.47;10.37;;;;;;;9.42;100.00;153777.91;5008976;28;20518;-94
2024/02/10 03:09:37;;;;;;;13.37;10.67;;;;;;;9.37;100.00;153766.22;5015670;28;20443;-94
2024/02/10 03:12:04;;;;;;;14.70;12.57;;;;;;;9.30;100.00;153748.13;5023810;28;20434;-93
2024/02/10 03:14:32;;;;;;;15.00;11.27;;;;;;;9.28;100.00;153742.97;5036261;28;20904;-93
2024/02/10 03:17:00;;;;;;;13.77;10.30;;;;;;;9.29;100.00;153744.28;5036641;28;20525;-94
2024/02/10 03:19:26;;;;;;;14.57;11.90;;;;;;;9.30;100.00;153748.13;5021536;28;20996;-92
2024/02/10 03:21:53;;;;;;;17.10;12.20;;;;;;;9.29;100.00;153744.28;5018798;28;20466;-93
2024/02/10 03:24:20;;;;;;;17.23;13.40;;;;;;;9.26;100.00;153737.81;5033181;28;20432;-95
2024/02/10 03:26:46;;;;;;;19.17;15.20;;;;;;;9.29;100.00;153744.28;5033048;28;20451;-94
2024/02/10 03:29:13;;;;;;;17.43;15.53;;;;;;;9.23;100.00;153728.75;4999475;28;20534;-95
2024/02/10 03:31:43;;;;;;;21.83;14.30;;;;;;;9.16;100.00;153711.91;5007213;28;20498;-94
2024/02/10 03:34:10;;;;;;;21.63;14.50;;;;;;;9.16;100.00;153713.22;5036011;28;20455;-95
2024/02/10 03:36:37;;;;;;;21.53;15.60;;;;;;;9.15;100.00;153709.34;5036583;28;20419;-95
2024/02/10 03:39:07;;;;;;;17.40;15.07;;;;;;;9.16;100.00;153711.91;5037042;28;20477;-95
2024/02/10 03:41:34;;;;;;;18.80;13.97;;;;;;;9.11;100.00;153698.97;5038845;28;20446;-95
2024/02/10 03:44:01;;;;;;;20.70;16.03;;;;;;;9.05;100.00;153683.50;5035506;28;20479;-94
2024/02/10 03:46:30;;;;;;;34.33;16.47;;;;;;;9.02;100.00;153677.03;5037034;28;20439;-94
2024/02/10 03:48:59;;;;;;;80.53;19.20;;;;;;;8.88;100.00;153639.50;5018408;28;21051;-94
2024/02/10 03:51:26;;;;;;;51.87;16.83;;;;;;;8.82;100.00;153623.97;5034827;28;20484;-95
2024/02/10 03:53:52;;;;;;;30.47;17.17;;;;;;;8.80;100.00;153620.13;5033385;28;20971;-94
2024/02/10 03:56:21;;;;;;;37.63;18.47;;;;;;;8.84;100.00;153630.44;5027133;28;20439;-94
2024/02/10 03:58:48;;;;;;;43.87;16.87;;;;;;;8.88;100.00;153639.50;5018501;28;21100;-94
2024/02/10 04:01:15;;;;;;;32.60;15.73;;;;;;;8.87;100.00;153636.94;5018895;28;20443;-94
2024/02/10 04:03:44;;;;;;;33.97;16.50;;;;;;;8.83;100.00;153627.88;5018200;28;20431;-94
2024/02/10 04:06:15;;;;;;;32.67;16.50;;;;;;;8.82;100.00;153623.97;5020467;28;20438;-94
2024/02/10 04:08:44;;;;;;;30.67;17.53;;;;;;;8.85;100.00;153631.75;5027703;28;20504;-94
2024/02/10 04:11:12;;;;;;;36.50;17.10;;;;;;;8.86;100.00;153635.66;5038269;28;20450;-94
2024/02/10 04:13:40;;;;;;;29.17;17.43;;;;;;;8.89;100.00;153642.13;5034516;28;20451;-94
2024/02/10 04:16:07;;;;;;;23.57;15.70;;;;;;;8.89;100.00;153642.13;5035544;28;20983;-94
2024/02/10 04:18:35;;;;;;;23.60;16.80;;;;;;;8.88;100.00;153640.81;5055458;28;20545;-94
2024/02/10 04:21:04;;;;;;;28.17;17.87;;;;;;;8.91;100.00;153647.28;5041776;28;20462;-94
2024/02/10 04:23:32;;;;;;;24.57;18.23;;;;;;;8.94;100.00;153655.03;5038235;28;20454;-94
2024/02/10 04:25:59;;;;;;;23.07;17.20;;;;;;;8.95;100.00;153657.59;5037967;28;20458;-94
2024/02/10 04:28:25;;;;;;;25.77;18.60;;;;;;;8.96;100.00;153660.19;5067128;28;20520;-93
2024/02/10 04:30:52;;;;;;;33.10;19.80;;;;;;;8.94;100.00;153656.34;5038122;28;20469;-94
2024/02/10 04:33:19;;;;;;;26.20;19.70;;;;;;;8.92;100.00;153649.88;5034374;28;20525;-94
2024/02/10 04:35:45;;;;;;;22.53;15.93;;;;;;;8.91;100.00;153648.56;5051256;28;20473;-94
2024/02/10 04:38:12;;;;;;;62.13;20.17;;;;;;;8.91;100.00;153648.56;5017894;28;20439;-95
2024/02/10 04:40:40;;;;;;;32.87;19.23;;;;;;;8.90;100.00;153644.66;5017663;28;20470;-94
2024/02/10 04:43:07;;;;;;;30.90;18.90;;;;;;;8.88;100.00;153640.81;5017749;28;20804;-94
2024/02/10 04:45:35;;;;;;;37.23;21.20;;;;;;;8.89;100.00;153643.41;5007867;28;20436;-94
2024/02/10 04:48:03;;;;;;;24.07;18.60;;;;;;;8.89;100.00;153642.13;5020951;28;20462;-95
2024/02/10 04:50:30;;;;;;;28.10;19.73;;;;;;;8.90;100.00;153644.66;5051369;28;20933;-94
2024/02/10 04:52:57;;;;;;;28.17;19.20;;;;;;;8.91;100.00;153647.28;5024371;28;20451;-94
2024/02/10 04:55:24;;;;;;;28.77;17.57;;;;;;;8.89;100.00;153642.13;5014104;28;20774;-94
2024/02/10 04:57:53;;;;;;;26.83;18.83;;;;;;;8.84;100.00;153629.19;5011494;28;20435;-94
2024/02/10 05:00:21;;;;;;;25.83;18.37;;;;;;;8.81;100.00;153621.41;5017849;28;20463;-94
2024/02/10 05:02:48;;;;;;;28.00;19.27;;;;;;;8.82;100.00;153625.28;5020209;28;20447;-94
2024/02/10 05:05:18;;;;;;;32.70;19.77;;;;;;;8.80;100.00;153618.81;5022837;28;20530;-94
2024/02/10 05:07:46;;;;;;;27.50;18.13;;;;;;;8.78;100.00;153614.97;5016776;28;20455;-94
2024/02/10 05:10:14;;;;;;;26.50;17.40;;;;;;;8.80;100.00;153620.13;5034173;28;20533;-94
2024/02/10 05:12:44;;;;;;;25.57;17.00;;;;;;;8.83;100.00;153626.59;5017755;28;20443;-94
2024/02/10 05:15:14;;;;;;;31.53;17.60;;;;;;;8.86;100.00;153634.34;5017841;28;20534;-94
2024/02/10 05:17:41;;;;;;;29.33;19.73;;;;;;;8.86;100.00;153635.66;5050977;28;20445;-94
2024/02/10 05:20:13;;;;;;;25.53;18.33;;;;;;;8.88;100.00;153639.50;5017352;28;20490;-94
2024/02/10 05:22:42;;;;;;;31.43;18.90;;;;;;;8.88;100.00;153639.50;5017570;28;20535;-94
2024/02/10 05:25:11;;;;;;;31.27;18.40;;;;;;;8.86;100.00;153634.34;5017536;28;20435;-94
2024/02/10 05:27:38;;;;;;;23.30;17.03;;;;;;;8.85;100.00;153631.75;5048943;28;20442;-94
2024/02/10 05:30:10;;;;;;;26.40;18.00;;;;;;;8.83;100.00;153626.59;5001836;28;20444;-94
2024/02/10 05:32:39;;;;;;;28.50;17.73;;;;;;;8.82;100.00;153625.28;5015492;28;20955;-94
2024/02/10 05:35:07;;;;;;;27.90;18.37;;;;;;;8.80;100.00;153618.81;5014063;28;20479;-94
2024/02/10 05:37:38;;;;;;;23.37;16.60;;;;;;;8.76;100.00;153609.81;5016766;28;20435;-94
2024/02/10 05:40:08;;;;;;;24.97;18.20;;;;;;;8.76;100.00;153608.50;5008519;28;20856;-93
2024/02/10 05:42:35;;;;;;;27.30;18.17;;;;;;;8.78;100.00;153614.97;5014759;28;20443;-93
2024/02/10 05:45:04;;;;;;;25.77;17.97;;;;;;;8.77;100.00;153611.06;5016691;28;20471;-93
2024/02/10 05:47:34;;;;;;;24.90;17.90;;;;;;;8.77;100.00;153612.34;5015761;28;20447;-93
2024/02/10 05:50:05;;;;;;;27.57;18.33;;;;;;;8.81;100.00;153622.72;5016474;28;20459;-93
2024/02/10 05:52:34;;;;;;;25.50;15.77;;;;;;;8.82;100.00;153623.97;5016697;28;20439;-92
2024/02/10 05:55:03;;;;;;;27.60;18.27;;;;;;;8.82;100.00;153623.97;5016107;28;20521;-92
2024/02/10 05:57:29;;;;;;;26.47;19.57;;;;;;;8.75;100.00;153607.19;5012803;28;20502;-91
2024/02/10 05:59:56;;;;;;;24.33;18.00;;;;;;;8.74;100.00;153603.28;5004295;28;20475;-93
2024/02/10 06:02:23;;;;;;;24.70;18.67;;;;;;;8.72;100.00;153599.44;5016579;28;20487;-95
2024/02/10 06:04:50;;;;;;;20.43;15.63;;;;;;;8.70;100.00;153594.28;5016980;28;20435;-91
2024/02/10 06:07:19;;;;;;;24.50;16.47;;;;;;;8.71;100.00;153596.81;5017098;28;20450;-92
2024/02/10 06:09:46;;;;;;;25.37;17.73;;;;;;;8.73;100.00;153600.72;5016430;28;21021;-94
2024/02/10 06:12:14;;;;;;;28.87;19.57;;;;;;;8.81;100.00;153621.41;5013374;28;20442;-94
2024/02/10 06:14:41;;;;;;;28.23;18.70;;;;;;;8.78;100.00;153613.66;5029213;28;20451;-93
2024/02/10 06:17:08;;;;;;;23.30;17.23;;;;;;;8.74;100.00;153603.28;5013233;28;20456;-94
2024/02/10 06:19:35;;;;;;;23.27;18.00;;;;;;;8.73;100.00;153600.72;5024054;28;20451;-94
2024/02/10 06:22:02;;;;;;;28.07;19.07;;;;;;;8.71;100.00;153595.56;5013154;28;20534;-94
2024/02/10 06:24:33;;;;;;;26.83;18.47;;;;;;;8.74;100.00;153603.28;5004585;28;20451;-94
2024/02/10 06:27:00;;;;;;;25.37;17.57;;;;;;;8.71;100.00;153596.81;5016746;28;20436;-94
2024/02/10 06:29:29;;;;;;;22.70;16.50;;;;;;;8.75;100.00;153607.19;5015419;28;20509;-94
2024/02/10 06:31:57;;;;;;;23.80;17.60;;;;;;;8.74;100.00;153604.59;5036258;28;20484;-94
2024/02/10 06:34:25;;;;;;;28.60;19.33;;;;;;;8.73;100.00;153602.03;5015283;28;21024;-93
2024/02/10 06:36:52;;;;;;;26.73;19.07;;;;;;;8.73;100.00;153600.72;5042681;28;20466;-94
2024/02/10 06:39:19;;;;;;;23.60;17.03;;;;;;;8.73;100.00;153600.72;5034845;28;20458;-94
2024/02/10 06:41:50;;;;;;;27.60;18.97;;;;;;;8.79;100.00;153617.50;5019323;28;20557;-93
2024/02/10 06:44:17;;;;;;;25.30;18.10;;;;;;;8.79;100.00;153616.25;5041953;28;20543;-94
2024/02/10 06:46:44;;;;;;;25.30;18.27;;;;;;;8.73;100.00;153602.03;5012568;28;20459;-94
2024/02/10 06:49:11;;;;;;;28.80;18.67;;;;;;;8.68;100.00;153587.81;5046185;28;20469;-93
2024/02/10 06:51:38;;;;;;;25.60;17.80;;;;;;;8.66;100.00;153582.66;5042066;28;20471;-95
2024/02/10 06:54:06;;;;;;;28.77;19.17;;;;;;;8.66;100.00;153582.66;5011501;28;20504;-94
2024/02/10 06:56:33;;;;;;;25.93;18.50;;;;;;;8.63;100.00;153574.88;5016144;28;20455;-94
2024/02/10 06:59:02;;;;;;;25.23;18.33;;;;;;;8.70;100.00;153592.97;5048546;28;20462;-94
2024/02/10 07:01:29;;;;;;;39.87;28.63;;;;;;;8.72;100.00;153598.13;5015780;28;20474;-94
2024/02/10 07:03:57;;;;;;;38.50;27.90;;;;;;;8.74;100.00;153603.28;5034026;28;21013;-93
2024/02/10 07:06:28;;;;;;;31.60;22.77;;;;;;;8.72;100.00;153598.13;5063735;28;20482;-94
2024/02/10 07:08:54;;;;;;;30.17;20.80;;;;;;;8.68;100.00;153587.81;5032847;28;20455;-94
2024/02/10 07:11:21;;;;;;;25.10;18.63;;;;;;;8.68;100.00;153587.81;5047766;28;20958;-94
2024/02/10 07:13:47;;;;;;;29.93;21.10;;;;;;;8.67;100.00;153585.22;5049417;28;20198;-94
2024/02/10 07:16:16;;;;;;;20.50;16.33;;;;;;;8.68;100.00;153589.13;5053761;28;20570;-94
2024/02/10 07:18:47;;;;;;;36.43;25.97;;;;;;;8.78;100.00;153613.66;5014813;28;20517;-93
2024/02/10 07:21:14;;;;;;;44.70;31.43;;;;;;;8.81;100.00;153621.41;5017596;28;20993;-94
2024/02/10 07:23:41;;;;;;;33.37;22.40;;;;;;;8.84;100.00;153629.19;5018483;28;20463;-93
2024/02/10 07:26:08;;;;;;;35.27;21.30;;;;;;;8.84;100.00;153629.19;5012564;28;20956;-94
2024/02/10 07:28:35;;;;;;;38.07;23.33;;;;;;;8.83;100.00;153626.59;5044075;28;20544;-94
2024/02/10 07:31:02;;;;;;;27.37;18.90;;;;;;;8.83;100.00;153626.59;5014441;28;20455;-94
2024/02/10 07:33:31;;;;;;;29.43;19.67;;;;;;;8.91;100.00;153647.28;5018678;28;20474;-94
2024/02/10 07:36:00;;;;;;;27.33;19.50;;;;;;;8.94;100.00;153655.03;5023803;28;20537;-94
2024/02/10 07:38:27;;;;;;;26.37;19.00;;;;;;;8.90;100.00;153644.66;5030242;28;20950;-94
2024/02/10 07:40:55;;;;;;;35.60;25.43;;;;;;;8.89;100.00;153642.13;5025992;28;20507;-94
2024/02/10 07:43:22;;;;;;;36.50;23.97;;;;;;;8.88;100.00;153639.50;5026921;28;20506;-92
2024/02/10 07:45:52;;;;;;;36.03;23.20;;;;;;;8.91;100.00;153647.28;5017114;28;20477;-93
2024/02/10 07:48:19;;;;;;;30.90;20.93;;;;;;;8.93;100.00;153652.44;5018304;28;20508;-94
2024/02/10 07:50:49;;;;;;;27.57;19.40;;;;;;;8.95;100.00;153658.91;5015488;28;20483;-93
2024/02/10 07:53:16;;;;;;;26.00;20.67;;;;;;;8.93;100.00;153652.44;5031107;28;20452;-93
2024/02/10 07:55:46;;;;;;;23.87;17.57;;;;;;;8.90;100.00;153645.97;5008321;28;20541;-94
2024/02/10 07:58:15;;;;;;;27.17;17.77;;;;;;;8.89;100.00;153643.41;5016203;28;20550;-93
2024/02/10 08:00:42;;;;;;;22.07;16.40;;;;;;;8.92;100.00;153649.88;5010242;28;20474;-93
2024/02/10 08:03:11;;;;;;;28.70;19.10;;;;;;;8.96;100.00;153660.19;5030600;28;20450;-93
2024/02/10 08:08:33;;;;;;;28.70;19.20;;;;;;;9.00;100.00;153671.81;5009698;28;20463;-93
2024/02/10 08:11:00;;;;;;;29.77;19.33;;;;;;;9.02;100.00;153677.03;5033582;28;20455;-93
2024/02/10 08:13:27;;;;;;;31.70;18.67;;;;;;;9.08;100.00;153691.25;5016591;28;20555;-94
2024/02/10 08:15:54;;;;;;;23.93;17.37;;;;;;;9.11;100.00;153698.97;5033041;28;20550;-94
2024/02/10 08:18:21;;;;;;;26.30;18.57;;;;;;;9.16;100.00;153711.91;5017051;28;20562;-94
2024/02/10 08:20:50;;;;;;;23.77;17.67;;;;;;;9.18;100.00;153717.13;5011961;28;20508;-93
2024/02/10 08:23:16;;;;;;;26.80;19.10;;;;;;;9.19;100.00;153720.97;5015874;28;20478;-93
2024/02/10 08:25:43;;;;;;;24.27;17.43;;;;;;;9.18;100.00;153718.41;5014947;28;20457;-94
2024/02/10 08:28:11;;;;;;;26.27;17.20;;;;;;;9.23;100.00;153730.03;5014710;28;20856;-94
2024/02/10 08:30:37;;;;;;;23.77;17.47;;;;;;;9.30;100.00;153746.84;5033564;28;20791;-93
2024/02/10 08:33:05;;;;;;;25.00;18.50;;;;;;;9.25;100.00;153735.22;5029997;28;20501;-94
2024/02/10 08:35:31;;;;;;;20.90;16.30;;;;;;;9.26;100.00;153737.81;5047578;28;20512;-93
2024/02/10 08:37:59;;;;;;;21.97;16.23;;;;;;;9.28;100.00;153742.97;5052913;28;20462;-93
2024/02/10 08:40:25;;;;;;;23.53;16.60;;;;;;;9.28;100.00;153741.69;5042032;28;20478;-93
2024/02/10 08:42:52;;;;;;;21.97;16.00;;;;;;;9.32;100.00;153752.03;5064321;28;20450;-93
2024/02/10 08:45:19;;;;;;;25.03;18.90;;;;;;;9.33;100.00;153755.91;5055071;28;20447;-93
2024/02/10 08:47:47;;;;;;;27.30;19.07;;;;;;;9.32;100.00;153752.03;5045803;28;20971;-94
2024/02/10 08:50:14;;;;;;;25.80;18.40;;;;;;;9.35;100.00;153759.75;5043414;28;20456;-93
2024/02/10 08:52:47;;;;;;;23.67;15.40;;;;;;;9.33;100.00;153754.59;5049511;28;20454;-93
2024/02/10 08:55:15;;;;;;;26.13;15.83;;;;;;;9.26;100.00;153737.81;5026669;28;20483;-93
2024/02/10 08:57:43;;;;;;;20.80;15.30;;;;;;;9.25;100.00;153735.22;5033594;28;20497;-93
2024/02/10 09:00:11;;;;;;;21.90;15.80;;;;;;;9.31;100.00;153749.44;5046972;28;20929;-93
2024/02/10 09:02:38;;;;;;;21.23;15.37;;;;;;;9.37;100.00;153766.22;5025732;28;20482;-93
2024/02/10 09:05:06;;;;;;;24.83;18.40;;;;;;;9.42;100.00;153779.22;5031912;28;20481;-93
2024/02/10 09:07:33;;;;;;;22.33;15.80;;;;;;;9.46;100.00;153789.53;5014381;28;20454;-93
2024/02/10 09:09:59;;;;;;;34.40;23.30;;;;;;;9.45;100.00;153786.94;5045881;28;20887;-93
2024/02/10 09:12:28;;;;;;;30.37;21.33;;;;;;;9.47;100.00;153790.84;5034830;28;20451;-93
2024/02/10 09:14:55;;;;;;;27.60;19.73;;;;;;;9.52;100.00;153805.06;5033897;28;20872;-93
2024/02/10 09:17:23;;;;;;;24.13;16.47;;;;;;;9.57;100.00;153818.00;5024042;28;20463;-93
2024/02/10 09:19:49;;;;;;;22.97;17.17;;;;;;;9.63;100.00;153832.25;5048852;28;20552;-93
2024/02/10 09:22:16;;;;;;;25.97;17.93;;;;;;;9.64;100.00;153834.81;5045774;28;21049;-93
2024/02/10 09:24:42;;;;;;;23.27;17.07;;;;;;;9.63;100.00;153833.53;5046174;28;20462;-93
2024/02/10 09:27:09;;;;;;;25.73;17.77;;;;;;;9.60;100.00;153825.78;5028105;28;20470;-93
2024/02/10 09:29:37;;;;;;;23.67;15.50;;;;;;;9.59;100.00;153823.16;5042689;28;20463;-93
2024/02/10 09:32:05;;;;;;;22.87;17.00;;;;;;;9.56;100.00;153815.41;5046794;28;20487;-93
2024/02/10 09:34:31;;;;;;;24.90;17.90;;;;;;;9.54;100.00;153810.25;5025732;28;20451;-93
2024/02/10 09:36:59;;;;;;;29.53;19.60;;;;;;;9.52;100.00;153805.06;5027617;28;20485;-93
2024/02/10 09:39:25;;;;;;;23.43;17.37;;;;;;;9.52;100.00;153803.78;5030670;28;20813;-94
2024/02/10 09:41:53;;;;;;;26.80;18.30;;;;;;;9.53;100.00;153806.38;5046449;28;20478;-93
2024/02/10 09:44:20;;;;;;;27.37;17.60;;;;;;;9.54;100.00;153808.94;5045330;28;20506;-93
2024/02/10 09:46:51;;;;;;;21.90;16.23;;;;;;;9.56;100.00;153815.41;5047768;28;20466;-94
2024/02/10 09:52:55;;;;;;;20.87;15.87;;;;;;;9.58;100.00;153819.31;5014630;28;20493;-93
2024/02/10 09:55:22;;;;;;;22.60;17.70;;;;;;;9.54;100.00;153810.25;5029206;28;20446;-93
2024/02/10 09:57:49;;;;;;;23.93;16.73;;;;;;;9.53;100.00;153806.38;5007325;28;21063;-93
2024/02/10 10:00:19;;;;;;;22.67;16.97;;;;;;;9.52;100.00;153803.78;5049579;28;20495;-93
2024/02/10 10:02:51;;;;;;;26.73;16.40;;;;;;;9.48;100.00;153794.69;5046766;28;20463;-93
2024/02/10 10:05:31;;;;;;;23.00;17.10;;;;;;;9.48;100.00;153793.41;5043791;28;20461;-92
2024/02/10 10:08:10;;;;;;;22.13;14.87;;;;;;;9.50;100.00;153799.91;5010004;28;20940;-92
2024/02/10 10:10:37;;;;;;;20.87;14.90;;;;;;;9.52;100.00;153805.06;5049930;28;20890;-92
2024/02/10 10:13:03;;;;;;;23.80;15.67;;;;;;;9.56;100.00;153815.41;5050322;28;20957;-93
2024/02/10 10:15:30;;;;;;;21.27;15.40;;;;;;;9.56;100.00;153815.41;5030337;28;20528;-93
2024/02/10 10:17:58;;;;;;;24.03;16.80;;;;;;;9.58;100.00;153820.56;5046965;28;20993;-92
2024/02/10 10:20:24;;;;;;;21.83;15.73;;;;;;;9.57;100.00;153816.69;5048249;28;20450;-93
2024/02/10 10:22:51;;;;;;;25.77;17.63;;;;;;;9.56;100.00;153815.41;5047737;28;20566;-93
2024/02/10 10:25:17;;;;;;;22.90;16.60;;;;;;;9.50;100.00;153798.59;5029929;28;20440;-93
2024/02/10 10:27:47;;;;;;;22.70;16.93;;;;;;;9.53;100.00;153807.63;5035867;28;20470;-92
2024/02/10 10:30:18;;;;;;;23.87;16.60;;;;;;;9.57;100.00;153818.00;5032486;28;20889;-92
2024/02/10 10:32:51;;;;;;;26.30;16.80;;;;;;;9.58;100.00;153819.31;5048411;28;20478;-92
2024/02/10 10:35:22;;;;;;;23.00;15.13;;;;;;;9.56;100.00;153815.41;5047985;28;20451;-93
2024/02/10 10:37:55;;;;;;;20.53;16.00;;;;;;;9.54;100.00;153810.25;5039569;28;20459;-93
2024/02/10 10:40:28;;;;;;;22.03;15.60;;;;;;;9.52;100.00;153805.06;5011562;28;20466;-92
2024/02/10 10:42:55;;;;;;;23.60;15.20;;;;;;;9.52;100.00;153805.06;5040113;28;20477;-92
2024/02/10 10:45:23;;;;;;;22.83;15.97;;;;;;;9.52;100.00;153805.06;5039778;28;20451;-92
2024/02/10 10:47:50;;;;;;;23.67;16.00;;;;;;;9.52;100.00;153805.06;5014073;28;20466;-92
2024/02/10 10:50:19;;;;;;;21.80;15.40;;;;;;;9.56;100.00;153814.09;5047266;28;20451;-93
2024/02/10 10:52:51;;;;;;;19.43;15.90;;;;;;;9.56;100.00;153814.09;5038153;28;20442;-92
2024/02/10 10:55:18;;;;;;;26.50;15.77;;;;;;;9.54;100.00;153808.94;5011296;28;20510;-92
2024/02/10 10:57:50;;;;;;;23.37;15.80;;;;;;;9.55;100.00;153812.84;5027878;28;20860;-92
2024/02/10 11:00:19;;;;;;;24.03;15.03;;;;;;;9.58;100.00;153820.56;5034331;28;20459;-92
2024/02/10 11:02:50;;;;;;;21.23;15.23;;;;;;;9.62;100.00;153830.94;5022144;28;20476;-93
2024/02/10 11:05:23;;;;;;;22.33;16.30;;;;;;;9.66;100.00;153841.25;5041892;28;20444;-93
2024/02/10 11:08:02;;;;;;;18.93;13.93;;;;;;;9.68;100.00;153846.47;5043822;28;20457;-92
2024/02/10 11:10:36;;;;;;;20.00;15.57;;;;;;;9.69;100.00;153849.03;5027598;28;20450;-92
2024/02/10 11:13:02;;;;;;;21.70;14.77;;;;;;;9.66;100.00;153840.00;5048155;28;22013;-92
2024/02/10 11:15:29;;;;;;;20.77;15.87;;;;;;;9.66;100.00;153840.00;5041235;28;20570;-92
2024/02/10 11:18:02;;;;;;;22.67;16.03;;;;;;;9.64;100.00;153836.09;5037009;28;20550;-92
2024/02/10 11:20:38;;;;;;;23.90;16.23;;;;;;;9.63;100.00;153832.25;5036163;28;20454;-93
2024/02/10 11:23:14;;;;;;;22.03;15.87;;;;;;;9.63;100.00;153833.53;5034609;28;20512;-92